Noatak, Alaska
Current Conditions -  °F | °C
As of 9:36 PM on Friday 19 Dec 2014 (Local Time) from PAWN Reporting Station
Clear Clear  
Wind Chill: -6°   Ceiling: Unl
Heat Index: -6°   Visibility: 10mi
Dew Point: -9°   Wind: 0mph
Humidity: 84%   Direction: NA
Pressure: 29.43"   Gusts: NA
Location:  67.56°N, 162.98°W
Report Text: PAWN 200636Z AUTO 00000KT 10SM CLR M21/M23 A2943 RMK AO1
Loading
Personal Weather Stations






























Interactive Weather Map New forecast layout! Learn more

10-Day Weather Forecast

Advertisements
Track Severe Weather on mobile